Time;durP1;ratioP1;P1;durP2;ratioP2;P2;SDS_P1;SDS_P2;PMS_P1;PMS_P2;Temp;Humidity;BMP_temperature;BMP_pressure;BME280_temperature;BME280_humidity;BME280_pressure;Samples;Min_cycle;Max_cycle;Signal;HPM_P1;HPM_P2
2021/06/13 00:02:36;;;;;;;6.22;5.25;;;;;;;;;;10190577;28;20581;-62
2021/06/13 00:07:34;;;;;;;10.48;5.78;;;;;;;;;;10193866;28;20089;-63
2021/06/13 00:12:32;;;;;;;6.18;5.60;;;;;;;;;;10200443;28;20066;-62
2021/06/13 00:17:31;;;;;;;6.68;5.85;;;;;;;;;;10197019;28;20065;-61
2021/06/13 00:22:29;;;;;;;8.48;6.20;;;;;;;;;;10196746;28;20080;-60
2021/06/13 00:27:27;;;;;;;7.25;6.47;;;;;;;;;;10200090;28;20070;-61
2021/06/13 00:32:25;;;;;;;8.93;6.32;;;;;;;;;;10201129;28;20049;-61
2021/06/13 00:37:24;;;;;;;11.32;6.72;;;;;;;;;;10200800;28;20045;-61
2021/06/13 00:42:22;;;;;;;9.02;6.05;;;;;;;;;;10199949;28;20077;-61
2021/06/13 00:47:20;;;;;;;10.13;6.28;;;;;;;;;;10200060;28;20085;-61
2021/06/13 00:52:18;;;;;;;6.78;6.10;;;;;;;;;;10198750;28;20071;-61
2021/06/13 00:57:18;;;;;;;9.30;6.25;;;;;;;;;;10198467;28;20093;-61
2021/06/13 01:02:16;;;;;;;7.88;6.15;;;;;;;;;;10197789;28;20483;-61
2021/06/13 01:07:18;;;;;;;8.73;6.15;;;;;;;;;;10197097;28;20475;-62
2021/06/13 01:12:20;;;;;;;7.00;6.38;;;;;;;;;;10213912;28;20046;-62
2021/06/13 01:17:20;;;;;;;8.48;6.72;;;;;;;;;;10198969;28;20564;-63
2021/06/13 01:22:40;;;;;;;11.73;7.03;;;;;;;;;;10195597;28;20080;-62
2021/06/13 01:27:51;;;;;;;10.13;7.18;;;;;;;;;;10194473;28;20278;-62
2021/06/13 01:32:50;;;;;;;10.77;7.20;;;;;;;;;;10196547;28;20058;-62
2021/06/13 01:37:51;;;;;;;10.55;7.35;;;;;;;;;;10196428;28;20050;-62
2021/06/13 01:42:52;;;;;;;10.80;7.38;;;;;;;;;;10197197;28;20050;-60
2021/06/13 01:47:53;;;;;;;8.25;6.55;;;;;;;;;;10195575;28;20088;-62
2021/06/13 01:52:52;;;;;;;12.55;7.20;;;;;;;;;;10197095;28;20038;-63
2021/06/13 01:57:51;;;;;;;8.30;7.38;;;;;;;;;;10196232;28;20045;-62
2021/06/13 02:03:11;;;;;;;11.30;7.88;;;;;;;;;;10196197;28;20042;-62
2021/06/13 02:08:17;;;;;;;8.48;7.10;;;;;;;;;;10195060;28;20092;-62
2021/06/13 02:13:20;;;;;;;12.45;7.32;;;;;;;;;;10195822;28;20061;-62
2021/06/13 02:18:27;;;;;;;8.63;7.57;;;;;;;;;;10195130;28;20427;-61
2021/06/13 02:23:28;;;;;;;14.85;7.53;;;;;;;;;;10195030;28;20058;-62
2021/06/13 02:28:30;;;;;;;12.13;7.72;;;;;;;;;;10194881;28;20240;-62
2021/06/13 02:33:30;;;;;;;15.25;8.15;;;;;;;;;;10194119;28;20060;-61
2021/06/13 02:38:34;;;;;;;8.30;7.50;;;;;;;;;;10194178;28;20422;-62
2021/06/13 02:43:32;;;;;;;12.55;8.15;;;;;;;;;;10194407;28;20646;-62
2021/06/13 02:48:34;;;;;;;9.23;6.50;;;;;;;;;;10193436;28;20064;-62
2021/06/13 02:53:42;;;;;;;8.35;7.22;;;;;;;;;;10194135;28;20046;-62
2021/06/13 02:58:46;;;;;;;8.23;6.63;;;;;;;;;;10194111;28;20049;-61
2021/06/13 03:03:46;;;;;;;12.15;5.80;;;;;;;;;;10194239;28;20045;-61
2021/06/13 03:08:44;;;;;;;9.55;5.82;;;;;;;;;;10195055;28;20077;-62
2021/06/13 03:13:45;;;;;;;10.13;6.25;;;;;;;;;;10193602;28;20050;-62
2021/06/13 03:18:45;;;;;;;8.32;6.30;;;;;;;;;;10194624;28;20082;-61
2021/06/13 03:23:45;;;;;;;8.88;6.63;;;;;;;;;;10194696;28;20080;-62
2021/06/13 03:28:44;;;;;;;7.40;5.47;;;;;;;;;;10193217;28;20045;-62
2021/06/13 03:33:44;;;;;;;6.85;5.75;;;;;;;;;;10194825;28;20057;-62
2021/06/13 03:38:46;;;;;;;11.32;7.53;;;;;;;;;;10193293;28;20042;-59
2021/06/13 03:43:46;;;;;;;7.53;5.65;;;;;;;;;;10196510;28;20499;-59
2021/06/13 03:48:44;;;;;;;23.85;12.45;;;;;;;;;;10201280;28;20486;-60
2021/06/13 03:53:54;;;;;;;12.73;5.93;;;;;;;;;;10202410;28;20076;-60
2021/06/13 03:58:54;;;;;;;8.52;7.65;;;;;;;;;;10202095;28;20085;-59
2021/06/13 04:03:54;;;;;;;8.23;6.50;;;;;;;;;;10201354;28;20046;-60
2021/06/13 04:08:53;;;;;;;12.35;6.00;;;;;;;;;;10201234;28;20097;-60
2021/06/13 04:13:52;;;;;;;35.47;32.17;;;;;;;;;;10201302;28;20042;-60
2021/06/13 04:18:52;;;;;;;33.92;30.83;;;;;;;;;;10199874;28;20124;-59
2021/06/13 04:23:51;;;;;;;20.73;14.68;;;;;;;;;;10201005;28;20522;-60
2021/06/13 04:28:49;;;;;;;12.23;9.95;;;;;;;;;;10200910;28;20515;-60
2021/06/13 04:33:49;;;;;;;9.60;8.20;;;;;;;;;;10200267;28;20462;-59
2021/06/13 04:38:52;;;;;;;12.43;9.95;;;;;;;;;;10200401;28;20045;-59
2021/06/13 04:43:51;;;;;;;10.73;9.52;;;;;;;;;;10200065;28;20093;-59
2021/06/13 04:48:49;;;;;;;7.47;6.10;;;;;;;;;;10199421;28;20085;-59
2021/06/13 04:54:07;;;;;;;7.65;5.85;;;;;;;;;;10199559;28;20064;-59
2021/06/13 04:59:06;;;;;;;10.45;6.70;;;;;;;;;;10199750;28;20049;-59
2021/06/13 05:04:05;;;;;;;10.38;6.75;;;;;;;;;;10198718;28;20488;-59
2021/06/13 05:09:03;;;;;;;8.10;5.70;;;;;;;;;;10199141;28;20084;-60
2021/06/13 05:14:01;;;;;;;8.45;5.65;;;;;;;;;;10199130;28;20383;-59
2021/06/13 05:19:01;;;;;;;6.18;4.97;;;;;;;;;;10195307;28;20540;-59
2021/06/13 05:24:01;;;;;;;11.10;8.52;;;;;;;;;;10197283;28;20493;-59
2021/06/13 05:28:59;;;;;;;12.07;7.90;;;;;;;;;;10197188;28;20088;-59
2021/06/13 05:33:57;;;;;;;8.45;6.22;;;;;;;;;;10197324;28;20046;-61
2021/06/13 05:38:57;;;;;;;7.90;5.35;;;;;;;;;;10197827;28;20050;-59
2021/06/13 05:43:57;;;;;;;7.07;5.38;;;;;;;;;;10197650;28;20042;-59
2021/06/13 05:48:55;;;;;;;7.15;5.50;;;;;;;;;;10196116;28;20085;-59
2021/06/13 05:53:53;;;;;;;7.35;5.15;;;;;;;;;;10196276;28;20085;-59
2021/06/13 05:58:53;;;;;;;8.70;5.32;;;;;;;;;;10193252;28;20069;-58
2021/06/13 06:03:51;;;;;;;7.07;5.97;;;;;;;;;;10189094;28;20053;-58
2021/06/13 06:08:50;;;;;;;6.18;5.20;;;;;;;;;;10194988;28;20084;-59
2021/06/13 06:13:53;;;;;;;7.80;4.95;;;;;;;;;;10189181;28;20084;-59
2021/06/13 06:18:52;;;;;;;6.75;5.20;;;;;;;;;;10196913;28;20061;-58
2021/06/13 06:23:51;;;;;;;8.20;6.38;;;;;;;;;;10193434;28;20066;-59
2021/06/13 06:28:49;;;;;;;7.35;6.65;;;;;;;;;;10188843;28;20105;-59
2021/06/13 06:33:47;;;;;;;10.43;5.07;;;;;;;;;;10191129;28;20073;-58
2021/06/13 06:38:47;;;;;;;5.43;4.93;;;;;;;;;;10192175;28;20076;-59
2021/06/13 06:43:45;;;;;;;6.43;5.00;;;;;;;;;;10193178;28;20462;-58
2021/06/13 06:48:44;;;;;;;6.03;5.32;;;;;;;;;;10193000;28;20523;-59
2021/06/13 06:53:42;;;;;;;9.48;6.63;;;;;;;;;;10193834;28;20042;-60
2021/06/13 06:58:42;;;;;;;6.60;6.00;;;;;;;;;;10193424;28;20407;-58
2021/06/13 07:03:40;;;;;;;8.10;4.75;;;;;;;;;;10193746;28;20053;-61
2021/06/13 07:08:39;;;;;;;9.23;4.78;;;;;;;;;;10193487;28;20081;-60
2021/06/13 07:13:37;;;;;;;8.30;6.20;;;;;;;;;;10193594;28;20046;-60
2021/06/13 07:18:37;;;;;;;8.60;5.80;;;;;;;;;;10195966;28;20081;-60
2021/06/13 07:23:35;;;;;;;8.52;4.97;;;;;;;;;;10201638;28;20470;-60
2021/06/13 07:28:34;;;;;;;5.63;4.80;;;;;;;;;;10201493;28;20153;-60
2021/06/13 07:33:32;;;;;;;7.97;7.13;;;;;;;;;;10200856;28;20121;-61
2021/06/13 07:38:32;;;;;;;6.05;5.03;;;;;;;;;;10200712;28;20049;-59
2021/06/13 07:43:30;;;;;;;5.18;4.55;;;;;;;;;;10200568;28;20085;-58
2021/06/13 07:48:29;;;;;;;5.05;4.47;;;;;;;;;;10200185;28;20100;-59
2021/06/13 07:53:28;;;;;;;6.05;5.55;;;;;;;;;;10200219;28;20399;-59
2021/06/13 07:58:27;;;;;;;6.10;4.80;;;;;;;;;;10200053;28;20042;-58
2021/06/13 08:03:25;;;;;;;15.02;4.68;;;;;;;;;;10199560;28;20061;-58
2021/06/13 08:08:24;;;;;;;5.30;4.35;;;;;;;;;;10200232;28;20065;-58
2021/06/13 08:13:22;;;;;;;5.60;4.80;;;;;;;;;;10199338;28;20072;-59
2021/06/13 08:18:22;;;;;;;4.60;4.20;;;;;;;;;;10199678;28;20050;-58
2021/06/13 08:23:20;;;;;;;5.65;3.72;;;;;;;;;;10200183;28;20084;-59
2021/06/13 08:28:19;;;;;;;10.98;3.95;;;;;;;;;;10199285;28;20050;-59
2021/06/13 08:33:17;;;;;;;8.32;4.25;;;;;;;;;;10198094;28;20044;-59
2021/06/13 08:38:18;;;;;;;6.32;4.43;;;;;;;;;;10198590;28;20045;-58
2021/06/13 08:43:16;;;;;;;7.00;4.70;;;;;;;;;;10198802;28;20088;-59
2021/06/13 08:48:14;;;;;;;7.35;4.40;;;;;;;;;;10197765;28;20085;-59
2021/06/13 08:53:13;;;;;;;10.35;5.50;;;;;;;;;;10197985;28;20112;-60
2021/06/13 08:58:14;;;;;;;4.72;4.32;;;;;;;;;;10196984;28;20077;-59
2021/06/13 09:03:13;;;;;;;7.38;4.32;;;;;;;;;;10194813;28;20081;-60
2021/06/13 09:08:12;;;;;;;5.05;4.45;;;;;;;;;;10195612;28;20049;-59
2021/06/13 09:13:11;;;;;;;7.40;4.80;;;;;;;;;;10193456;28;20070;-59
2021/06/13 09:18:27;;;;;;;6.20;4.85;;;;;;;;;;10196292;28;20042;-58
2021/06/13 09:23:29;;;;;;;12.32;5.82;;;;;;;;;;10194595;28;20073;-56
2021/06/13 09:28:28;;;;;;;8.50;6.30;;;;;;;;;;10188406;28;20065;-59
2021/06/13 09:33:29;;;;;;;8.90;5.63;;;;;;;;;;10188732;28;20080;-59
2021/06/13 09:38:33;;;;;;;10.70;5.85;;;;;;;;;;10190646;28;20057;-59
2021/06/13 09:43:33;;;;;;;6.22;5.63;;;;;;;;;;10186118;28;20077;-57
2021/06/13 09:48:32;;;;;;;7.65;5.82;;;;;;;;;;10196198;28;20065;-59
2021/06/13 09:53:33;;;;;;;11.38;7.15;;;;;;;;;;10197199;28;20108;-59
2021/06/13 09:58:32;;;;;;;7.40;6.70;;;;;;;;;;10164831;28;20080;-56
2021/06/13 10:03:34;;;;;;;6.85;6.15;;;;;;;;;;10186814;28;20077;-59
2021/06/13 10:08:35;;;;;;;9.60;7.18;;;;;;;;;;10188099;28;20100;-60
2021/06/13 10:13:44;;;;;;;8.23;7.43;;;;;;;;;;10188242;28;20088;-60
2021/06/13 10:18:51;;;;;;;11.65;7.93;;;;;;;;;;10189082;28;20066;-60
2021/06/13 10:23:52;;;;;;;9.63;8.73;;;;;;;;;;10191246;28;20077;-59
2021/06/13 10:28:50;;;;;;;6.75;6.15;;;;;;;;;;10191101;28;20089;-58
2021/06/13 10:33:48;;;;;;;14.07;12.57;;;;;;;;;;10193367;28;20077;-59
2021/06/13 10:38:47;;;;;;;9.07;8.27;;;;;;;;;;10194053;28;20065;-59
2021/06/13 10:43:46;;;;;;;10.52;7.65;;;;;;;;;;10193816;28;20049;-59
2021/06/13 10:48:48;;;;;;;11.18;9.10;;;;;;;;;;10193710;28;20104;-59
2021/06/13 10:53:47;;;;;;;8.50;6.88;;;;;;;;;;10193090;28;20069;-59
2021/06/13 10:58:47;;;;;;;12.48;8.52;;;;;;;;;;10193653;28;20100;-58
2021/06/13 11:04:02;;;;;;;10.95;9.75;;;;;;;;;;10193157;28;20069;-59
2021/06/13 11:09:01;;;;;;;10.40;9.43;;;;;;;;;;10194226;28;20042;-59
2021/06/13 11:14:14;;;;;;;9.40;8.50;;;;;;;;;;10193065;28;20517;-58
2021/06/13 11:19:27;;;;;;;11.48;9.07;;;;;;;;;;10192705;28;20081;-58
2021/06/13 11:24:40;;;;;;;13.85;9.88;;;;;;;;;;10192880;28;20092;-58
2021/06/13 11:29:59;;;;;;;13.82;10.15;;;;;;;;;;10193141;28;20072;-59
2021/06/13 11:34:59;;;;;;;9.55;7.65;;;;;;;;;;10188322;28;20050;-59
2021/06/13 11:39:58;;;;;;;10.30;8.20;;;;;;;;;;10192750;28;20404;-59
2021/06/13 11:44:56;;;;;;;8.85;8.13;;;;;;;;;;10192433;28;20045;-59
2021/06/13 11:49:54;;;;;;;7.25;6.65;;;;;;;;;;10192018;28;20085;-59
2021/06/13 11:54:59;;;;;;;8.23;7.43;;;;;;;;;;10191086;28;20046;-58
2021/06/13 12:00:10;;;;;;;7.63;6.47;;;;;;;;;;10192268;28;20510;-58
2021/06/13 12:05:09;;;;;;;9.18;8.32;;;;;;;;;;10198720;28;20050;-59
2021/06/13 12:10:19;;;;;;;7.20;6.60;;;;;;;;;;10199655;28;20074;-59
2021/06/13 12:15:28;;;;;;;8.95;7.90;;;;;;;;;;10199722;28;20045;-58
2021/06/13 12:20:27;;;;;;;8.10;7.25;;;;;;;;;;10199084;28;20074;-59
2021/06/13 12:30:45;;;;;;;6.22;5.72;;;;;;;;;;10199232;28;20499;-59
2021/06/13 12:35:44;;;;;;;6.05;5.55;;;;;;;;;;10199580;28;20483;-59
2021/06/13 12:40:48;;;;;;;9.73;8.13;;;;;;;;;;10199119;28;20074;-58
2021/06/13 12:45:47;;;;;;;7.85;6.68;;;;;;;;;;10198893;28;20502;-59
2021/06/13 12:50:46;;;;;;;8.23;6.95;;;;;;;;;;10197904;28;20100;-59
2021/06/13 12:55:46;;;;;;;4.93;4.53;;;;;;;;;;10198718;28;20081;-58
2021/06/13 13:00:46;;;;;;;5.25;4.75;;;;;;;;;;10198239;28;20084;-58
2021/06/13 13:05:45;;;;;;;4.82;4.13;;;;;;;;;;10196874;28;20069;-58
2021/06/13 13:10:58;;;;;;;6.07;4.28;;;;;;;;;;10197805;28;20108;-58
2021/06/13 13:15:56;;;;;;;5.47;5.00;;;;;;;;;;10197485;28;20086;-58
2021/06/13 13:20:55;;;;;;;5.60;4.35;;;;;;;;;;10196724;28;20042;-58
2021/06/13 13:25:54;;;;;;;4.82;4.38;;;;;;;;;;10196429;28;20050;-60
2021/06/13 13:30:55;;;;;;;5.25;4.75;;;;;;;;;;10196795;28;20077;-58
2021/06/13 13:35:53;;;;;;;8.40;5.25;;;;;;;;;;10196614;28;20438;-59
2021/06/13 13:40:52;;;;;;;10.43;6.88;;;;;;;;;;10196440;28;20224;-58
2021/06/13 13:45:50;;;;;;;7.28;6.65;;;;;;;;;;10196364;28;20668;-58
2021/06/13 13:50:52;;;;;;;6.88;6.28;;;;;;;;;;10195609;28;20132;-58
2021/06/13 13:55:52;;;;;;;5.88;4.60;;;;;;;;;;10195909;28;20053;-59
2021/06/13 14:00:53;;;;;;;6.05;4.85;;;;;;;;;;10194982;28;20073;-59
2021/06/13 14:05:54;;;;;;;5.72;5.07;;;;;;;;;;10195687;28;20089;-59
2021/06/13 14:10:52;;;;;;;4.50;4.03;;;;;;;;;;10194668;28;20522;-59
2021/06/13 14:15:50;;;;;;;6.45;5.25;;;;;;;;;;10195216;28;20069;-58
2021/06/13 14:20:49;;;;;;;6.25;5.47;;;;;;;;;;10195302;28;20089;-59
2021/06/13 14:25:50;;;;;;;15.25;9.07;;;;;;;;;;10194995;28;20088;-58
2021/06/13 14:30:48;;;;;;;8.18;3.22;;;;;;;;;;10194074;28;20503;-59
2021/06/13 14:35:46;;;;;;;9.18;7.00;;;;;;;;;;10194611;28;20421;-58
2021/06/13 14:40:45;;;;;;;10.95;9.00;;;;;;;;;;10194947;28;20057;-59
2021/06/13 14:45:45;;;;;;;6.32;4.45;;;;;;;;;;10194373;28;20042;-60
2021/06/13 14:50:43;;;;;;;6.20;3.83;;;;;;;;;;10193583;28;20077;-59
2021/06/13 14:55:42;;;;;;;7.40;4.43;;;;;;;;;;10194194;28;20060;-59
2021/06/13 15:00:40;;;;;;;3.58;3.28;;;;;;;;;;10193873;28;20065;-60
2021/06/13 15:05:40;;;;;;;6.55;5.88;;;;;;;;;;10193706;28;20521;-59
2021/06/13 15:10:38;;;;;;;3.33;1.30;;;;;;;;;;10193913;28;20375;-61
2021/06/13 15:15:37;;;;;;;6.60;1.80;;;;;;;;;;10193192;28;20088;-61
2021/06/13 15:20:36;;;;;;;7.72;1.95;;;;;;;;;;10192868;28;20074;-61
2021/06/13 15:25:36;;;;;;;5.15;1.90;;;;;;;;;;10193119;28;20498;-61
2021/06/13 15:30:34;;;;;;;1.20;1.10;;;;;;;;;;10193146;28;20057;-61
2021/06/13 15:35:33;;;;;;;3.00;2.05;;;;;;;;;;10191511;28;20530;-62
2021/06/13 15:40:31;;;;;;;7.68;1.45;;;;;;;;;;10195952;28;20108;-62
2021/06/13 15:45:31;;;;;;;4.93;1.42;;;;;;;;;;10201267;28;20088;-62
2021/06/13 15:50:30;;;;;;;2.33;1.60;;;;;;;;;;10200127;28;20054;-62
2021/06/13 15:55:33;;;;;;;2.92;1.40;;;;;;;;;;10200385;28;20557;-62
2021/06/13 16:00:33;;;;;;;2.97;1.73;;;;;;;;;;10200488;28;20458;-61
2021/06/13 16:05:31;;;;;;;5.88;1.20;;;;;;;;;;10200017;28;20088;-61
2021/06/13 16:10:30;;;;;;;2.50;1.23;;;;;;;;;;10200052;28;20049;-62
2021/06/13 16:15:28;;;;;;;2.38;1.40;;;;;;;;;;10198218;28;20061;-62
2021/06/13 16:20:28;;;;;;;4.80;1.73;;;;;;;;;;10200008;28;20086;-62
2021/06/13 16:25:26;;;;;;;3.83;1.30;;;;;;;;;;10199317;28;20069;-62
2021/06/13 16:30:25;;;;;;;6.03;1.60;;;;;;;;;;10199002;28;20081;-62
2021/06/13 16:35:24;;;;;;;4.72;1.67;;;;;;;;;;10198681;28;20141;-62
2021/06/13 16:40:24;;;;;;;2.55;2.03;;;;;;;;;;10199051;28;20112;-62
2021/06/13 16:45:22;;;;;;;6.47;1.55;;;;;;;;;;10198913;28;20077;-62
2021/06/13 16:50:21;;;;;;;6.60;2.50;;;;;;;;;;10197033;28;20065;-61
2021/06/13 16:55:19;;;;;;;3.55;1.90;;;;;;;;;;10186543;28;20141;-63
2021/06/13 17:00:19;;;;;;;10.32;8.32;;;;;;;;;;10193524;28;20069;-60
2021/06/13 17:05:17;;;;;;;16.98;7.82;;;;;;;;;;10198221;28;20069;-60
2021/06/13 17:10:16;;;;;;;9.35;3.22;;;;;;;;;;10185993;28;20581;-60
2021/06/13 17:15:15;;;;;;;5.57;2.60;;;;;;;;;;10190593;28;20541;-61
2021/06/13 17:20:15;;;;;;;5.15;2.63;;;;;;;;;;10198734;28;20074;-61
2021/06/13 17:25:15;;;;;;;6.85;2.45;;;;;;;;;;10197996;28;20077;-61
2021/06/13 17:30:14;;;;;;;4.78;2.92;;;;;;;;;;10198703;28;20089;-61
2021/06/13 17:35:13;;;;;;;3.92;2.25;;;;;;;;;;10194915;28;20077;-61
2021/06/13 17:40:15;;;;;;;3.33;2.08;;;;;;;;;;10191691;28;20093;-60
2021/06/13 17:45:14;;;;;;;5.60;1.60;;;;;;;;;;10197777;28;20064;-61
2021/06/13 17:50:15;;;;;;;1.70;1.60;;;;;;;;;;10196358;28;20085;-60
2021/06/13 17:55:15;;;;;;;2.78;2.45;;;;;;;;;;10191506;28;20096;-61
2021/06/13 18:00:14;;;;;;;8.85;2.75;;;;;;;;;;10193820;28;20078;-61
2021/06/13 18:05:12;;;;;;;8.18;5.88;;;;;;;;;;10195444;28;20043;-60
2021/06/13 18:10:11;;;;;;;3.67;2.20;;;;;;;;;;10194127;28;20065;-61
2021/06/13 18:15:12;;;;;;;7.43;2.35;;;;;;;;;;10186782;28;20073;-62
2021/06/13 18:20:11;;;;;;;4.70;1.90;;;;;;;;;;10195461;28;20120;-61
2021/06/13 18:25:10;;;;;;;5.10;2.17;;;;;;;;;;10194200;28;20434;-62
2021/06/13 18:30:09;;;;;;;4.65;2.90;;;;;;;;;;10194920;28;20065;-61
2021/06/13 18:35:09;;;;;;;2.85;2.10;;;;;;;;;;10194728;28;20470;-62
2021/06/13 18:40:08;;;;;;;3.65;1.80;;;;;;;;;;10194164;28;20042;-62
2021/06/13 18:45:07;;;;;;;16.33;2.20;;;;;;;;;;10195754;28;20081;-62
2021/06/13 18:50:07;;;;;;;4.85;1.90;;;;;;;;;;10192556;28;20492;-62
2021/06/13 18:55:08;;;;;;;4.75;2.28;;;;;;;;;;10192261;28;20077;-62
2021/06/13 19:00:08;;;;;;;3.13;2.70;;;;;;;;;;10192336;28;20050;-60
2021/06/13 19:05:07;;;;;;;5.03;2.55;;;;;;;;;;10186463;28;20084;-59
2021/06/13 19:10:06;;;;;;;6.38;3.50;;;;;;;;;;10191818;28;20074;-61
2021/06/13 19:15:06;;;;;;;4.50;3.13;;;;;;;;;;10185364;28;20085;-60
2021/06/13 19:20:06;;;;;;;2.58;2.22;;;;;;;;;;10193391;28;20522;-63
2021/06/13 19:25:04;;;;;;;5.35;2.92;;;;;;;;;;10188130;28;20073;-60
2021/06/13 19:30:03;;;;;;;3.53;2.65;;;;;;;;;;10194134;28;20069;-60
2021/06/13 19:35:04;;;;;;;2.72;2.50;;;;;;;;;;10185577;28;20111;-61
2021/06/13 19:40:03;;;;;;;3.47;2.30;;;;;;;;;;10193627;28;20490;-61
2021/06/13 19:45:01;;;;;;;4.25;2.42;;;;;;;;;;10194157;28;20077;-62
2021/06/13 19:50:00;;;;;;;6.70;2.15;;;;;;;;;;10188977;28;20081;-61
2021/06/13 19:55:01;;;;;;;3.97;2.00;;;;;;;;;;10186981;28;20070;-60
2021/06/13 19:59:59;;;;;;;4.65;2.05;;;;;;;;;;10186748;28;20085;-61
2021/06/13 20:04:58;;;;;;;2.75;2.42;;;;;;;;;;10183444;28;20488;-61
2021/06/13 20:09:56;;;;;;;3.65;2.33;;;;;;;;;;10188734;28;20050;-61
2021/06/13 20:14:56;;;;;;;4.80;2.60;;;;;;;;;;10193215;28;20149;-61
2021/06/13 20:19:54;;;;;;;4.80;2.50;;;;;;;;;;10191489;28;20467;-62
2021/06/13 20:24:52;;;;;;;6.82;2.50;;;;;;;;;;10191474;28;20434;-60
2021/06/13 20:29:51;;;;;;;3.85;2.30;;;;;;;;;;10198952;28;20407;-61
2021/06/13 20:34:51;;;;;;;5.25;2.50;;;;;;;;;;10200796;28;20493;-61
2021/06/13 20:39:50;;;;;;;1.95;1.80;;;;;;;;;;10200461;28;20050;-62
2021/06/13 20:44:49;;;;;;;2.50;2.08;;;;;;;;;;10200242;28;20569;-61
2021/06/13 20:49:48;;;;;;;4.65;2.20;;;;;;;;;;10199476;28;20065;-61
2021/06/13 20:54:48;;;;;;;3.00;2.08;;;;;;;;;;10200079;28;20081;-60
2021/06/13 20:59:47;;;;;;;2.80;2.42;;;;;;;;;;10199799;28;20053;-60
2021/06/13 21:04:45;;;;;;;3.80;2.55;;;;;;;;;;10199698;28;20074;-61
2021/06/13 21:09:44;;;;;;;3.05;2.28;;;;;;;;;;10199144;28;20069;-61
2021/06/13 21:14:43;;;;;;;9.77;2.55;;;;;;;;;;10199386;28;20097;-61
2021/06/13 21:19:42;;;;;;;6.65;2.50;;;;;;;;;;10199297;28;20046;-61
2021/06/13 21:24:40;;;;;;;4.32;2.28;;;;;;;;;;10197419;28;20455;-60
2021/06/13 21:29:38;;;;;;;6.20;2.33;;;;;;;;;;10198438;28;20046;-61
2021/06/13 21:34:38;;;;;;;6.55;2.80;;;;;;;;;;10198185;28;20131;-62
2021/06/13 21:39:36;;;;;;;6.07;2.80;;;;;;;;;;10198021;28;20048;-61
2021/06/13 21:44:34;;;;;;;9.05;2.67;;;;;;;;;;10197688;28;20073;-62
2021/06/13 21:49:33;;;;;;;4.20;2.75;;;;;;;;;;10196553;28;20073;-62
2021/06/13 21:54:32;;;;;;;5.18;2.72;;;;;;;;;;10197108;28;20081;-61
2021/06/13 21:59:32;;;;;;;6.43;2.78;;;;;;;;;;10197146;28;20053;-61
2021/06/13 22:04:30;;;;;;;4.45;2.60;;;;;;;;;;10197058;28;20073;-61
2021/06/13 22:09:29;;;;;;;4.78;2.65;;;;;;;;;;10195363;28;20065;-61
2021/06/13 22:14:29;;;;;;;4.60;2.83;;;;;;;;;;10194220;28;20081;-61
2021/06/13 22:19:27;;;;;;;5.05;3.10;;;;;;;;;;10196568;28;20081;-62
2021/06/13 22:24:38;;;;;;;4.57;2.80;;;;;;;;;;10196945;28;20080;-62
2021/06/13 22:29:38;;;;;;;5.03;2.58;;;;;;;;;;10196198;28;20419;-62
2021/06/13 22:34:36;;;;;;;6.30;2.70;;;;;;;;;;10196415;28;20104;-62
2021/06/13 22:39:34;;;;;;;7.78;3.13;;;;;;;;;;10196146;28;20613;-62
2021/06/13 22:44:32;;;;;;;3.30;2.60;;;;;;;;;;10195191;28;20049;-63
2021/06/13 22:49:32;;;;;;;13.48;2.65;;;;;;;;;;10195062;28;20093;-63
2021/06/13 22:54:30;;;;;;;5.93;2.30;;;;;;;;;;10193443;28;20591;-62
2021/06/13 22:59:30;;;;;;;2.30;2.10;;;;;;;;;;10194738;28;20046;-62
2021/06/13 23:04:28;;;;;;;4.10;2.30;;;;;;;;;;10195397;28;20038;-62
2021/06/13 23:09:28;;;;;;;3.63;2.00;;;;;;;;;;10194997;28;20046;-62
2021/06/13 23:14:26;;;;;;;4.72;2.72;;;;;;;;;;10195362;28;20088;-62
2021/06/13 23:19:25;;;;;;;2.67;2.05;;;;;;;;;;10195024;28;20046;-61
2021/06/13 23:24:23;;;;;;;3.92;2.00;;;;;;;;;;10194662;28;20065;-61
2021/06/13 23:29:23;;;;;;;4.53;1.83;;;;;;;;;;10194540;28;20077;-61
2021/06/13 23:34:21;;;;;;;6.03;2.03;;;;;;;;;;10193321;28;20085;-61
2021/06/13 23:39:19;;;;;;;2.63;1.60;;;;;;;;;;10194820;28;20050;-62
2021/06/13 23:44:17;;;;;;;3.65;1.98;;;;;;;;;;10194359;28;20056;-62
2021/06/13 23:49:17;;;;;;;9.05;1.70;;;;;;;;;;10194349;28;20061;-61
2021/06/13 23:54:16;;;;;;;10.10;1.95;;;;;;;;;;10193760;28;20084;-61
2021/06/13 23:59:14;;;;;;;4.22;1.52;;;;;;;;;;10194725;28;20050;-61
